sensor_id;sensor_type;location;lat;lon;timestamp;P1;durP1;ratioP1;P2;durP2;ratioP2
26774;SDS011;14362;51.902;7.626;2022-11-27T00:02:39;9.82;;;5.15;;
26774;SDS011;14362;51.902;7.626;2022-11-27T00:06:41;10.40;;;5.45;;
26774;SDS011;14362;51.902;7.626;2022-11-27T00:10:42;14.13;;;5.88;;
26774;SDS011;14362;51.902;7.626;2022-11-27T00:14:45;13.13;;;5.78;;
26774;SDS011;14362;51.902;7.626;2022-11-27T00:18:48;14.10;;;5.87;;
26774;SDS011;14362;51.902;7.626;2022-11-27T00:22:50;17.05;;;6.10;;
26774;SDS011;14362;51.902;7.626;2022-11-27T00:26:51;12.95;;;6.13;;
26774;SDS011;14362;51.902;7.626;2022-11-27T00:30:57;12.90;;;5.57;;
26774;SDS011;14362;51.902;7.626;2022-11-27T00:34:59;12.27;;;6.20;;
26774;SDS011;14362;51.902;7.626;2022-11-27T00:39:01;11.55;;;5.60;;
26774;SDS011;14362;51.902;7.626;2022-11-27T00:43:03;13.38;;;5.70;;
26774;SDS011;14362;51.902;7.626;2022-11-27T00:47:06;9.02;;;5.55;;
26774;SDS011;14362;51.902;7.626;2022-11-27T00:51:08;11.80;;;5.50;;
26774;SDS011;14362;51.902;7.626;2022-11-27T00:55:11;17.33;;;6.07;;
26774;SDS011;14362;51.902;7.626;2022-11-27T00:59:13;12.38;;;5.72;;
26774;SDS011;14362;51.902;7.626;2022-11-27T01:03:15;13.88;;;6.13;;
26774;SDS011;14362;51.902;7.626;2022-11-27T01:07:17;13.35;;;6.30;;
26774;SDS011;14362;51.902;7.626;2022-11-27T01:11:20;15.23;;;6.97;;
26774;SDS011;14362;51.902;7.626;2022-11-27T01:15:24;10.82;;;6.15;;
26774;SDS011;14362;51.902;7.626;2022-11-27T01:19:27;16.30;;;7.03;;
26774;SDS011;14362;51.902;7.626;2022-11-27T01:23:28;17.50;;;6.93;;
26774;SDS011;14362;51.902;7.626;2022-11-27T01:27:30;13.95;;;7.10;;
26774;SDS011;14362;51.902;7.626;2022-11-27T01:31:32;15.73;;;6.35;;
26774;SDS011;14362;51.902;7.626;2022-11-27T01:35:35;19.85;;;7.18;;
26774;SDS011;14362;51.902;7.626;2022-11-27T01:39:37;13.85;;;7.15;;
26774;SDS011;14362;51.902;7.626;2022-11-27T01:43:39;13.30;;;6.30;;
26774;SDS011;14362;51.902;7.626;2022-11-27T01:47:43;17.27;;;7.40;;
26774;SDS011;14362;51.902;7.626;2022-11-27T01:51:50;15.20;;;6.90;;
26774;SDS011;14362;51.902;7.626;2022-11-27T01:55:57;13.23;;;6.68;;
26774;SDS011;14362;51.902;7.626;2022-11-27T02:04:04;14.38;;;6.85;;
26774;SDS011;14362;51.902;7.626;2022-11-27T02:08:08;16.48;;;6.65;;
26774;SDS011;14362;51.902;7.626;2022-11-27T02:12:13;15.95;;;6.57;;
26774;SDS011;14362;51.902;7.626;2022-11-27T02:16:26;17.50;;;6.65;;
26774;SDS011;14362;51.902;7.626;2022-11-27T02:20:37;26.00;;;7.72;;
26774;SDS011;14362;51.902;7.626;2022-11-27T02:24:48;10.00;;;6.68;;
26774;SDS011;14362;51.902;7.626;2022-11-27T02:28:59;13.18;;;6.05;;
26774;SDS011;14362;51.902;7.626;2022-11-27T02:33:03;14.35;;;6.95;;
26774;SDS011;14362;51.902;7.626;2022-11-27T02:37:11;11.30;;;6.38;;
26774;SDS011;14362;51.902;7.626;2022-11-27T02:41:18;14.13;;;6.25;;
26774;SDS011;14362;51.902;7.626;2022-11-27T02:45:27;17.58;;;6.05;;
26774;SDS011;14362;51.902;7.626;2022-11-27T02:49:33;13.25;;;6.05;;
26774;SDS011;14362;51.902;7.626;2022-11-27T02:53:37;13.00;;;5.72;;
26774;SDS011;14362;51.902;7.626;2022-11-27T02:57:40;16.90;;;5.75;;
26774;SDS011;14362;51.902;7.626;2022-11-27T03:01:45;11.48;;;5.72;;
26774;SDS011;14362;51.902;7.626;2022-11-27T03:05:51;12.98;;;6.00;;
26774;SDS011;14362;51.902;7.626;2022-11-27T03:09:57;11.05;;;5.25;;
26774;SDS011;14362;51.902;7.626;2022-11-27T03:14:02;8.15;;;4.97;;
26774;SDS011;14362;51.902;7.626;2022-11-27T03:18:09;9.38;;;5.28;;
26774;SDS011;14362;51.902;7.626;2022-11-27T03:22:18;12.70;;;5.30;;
26774;SDS011;14362;51.902;7.626;2022-11-27T03:26:19;14.93;;;5.40;;
26774;SDS011;14362;51.902;7.626;2022-11-27T03:30:21;10.10;;;5.35;;
26774;SDS011;14362;51.902;7.626;2022-11-27T03:34:24;9.85;;;5.22;;
26774;SDS011;14362;51.902;7.626;2022-11-27T03:38:26;11.65;;;5.50;;
26774;SDS011;14362;51.902;7.626;2022-11-27T03:42:29;10.77;;;5.78;;
26774;SDS011;14362;51.902;7.626;2022-11-27T03:46:36;13.45;;;5.70;;
26774;SDS011;14362;51.902;7.626;2022-11-27T03:50:47;9.45;;;5.22;;
26774;SDS011;14362;51.902;7.626;2022-11-27T03:55:00;12.43;;;5.57;;
26774;SDS011;14362;51.902;7.626;2022-11-27T03:59:11;11.73;;;5.20;;
26774;SDS011;14362;51.902;7.626;2022-11-27T04:03:21;10.07;;;5.03;;
26774;SDS011;14362;51.902;7.626;2022-11-27T04:07:25;10.13;;;4.90;;
26774;SDS011;14362;51.902;7.626;2022-11-27T04:11:27;8.20;;;5.00;;
26774;SDS011;14362;51.902;7.626;2022-11-27T04:15:28;7.18;;;4.82;;
26774;SDS011;14362;51.902;7.626;2022-11-27T04:19:29;9.15;;;5.10;;
26774;SDS011;14362;51.902;7.626;2022-11-27T04:23:32;14.40;;;5.78;;
26774;SDS011;14362;51.902;7.626;2022-11-27T04:27:34;9.20;;;4.95;;
26774;SDS011;14362;51.902;7.626;2022-11-27T04:31:35;8.80;;;5.35;;
26774;SDS011;14362;51.902;7.626;2022-11-27T04:35:36;11.05;;;6.10;;
26774;SDS011;14362;51.902;7.626;2022-11-27T04:39:39;13.48;;;6.20;;
26774;SDS011;14362;51.902;7.626;2022-11-27T04:43:41;9.98;;;6.18;;
26774;SDS011;14362;51.902;7.626;2022-11-27T04:47:42;11.18;;;6.15;;
26774;SDS011;14362;51.902;7.626;2022-11-27T04:51:43;10.82;;;6.60;;
26774;SDS011;14362;51.902;7.626;2022-11-27T04:55:46;9.80;;;6.93;;
26774;SDS011;14362;51.902;7.626;2022-11-27T04:59:48;14.50;;;6.47;;
26774;SDS011;14362;51.902;7.626;2022-11-27T05:03:49;13.88;;;6.72;;
26774;SDS011;14362;51.902;7.626;2022-11-27T05:07:50;12.27;;;7.38;;
26774;SDS011;14362;51.902;7.626;2022-11-27T05:11:53;9.13;;;6.85;;
26774;SDS011;14362;51.902;7.626;2022-11-27T05:15:55;12.02;;;7.47;;
26774;SDS011;14362;51.902;7.626;2022-11-27T05:19:57;11.73;;;6.97;;
26774;SDS011;14362;51.902;7.626;2022-11-27T05:23:58;13.57;;;7.43;;
26774;SDS011;14362;51.902;7.626;2022-11-27T05:28:01;12.95;;;6.45;;
26774;SDS011;14362;51.902;7.626;2022-11-27T05:32:03;12.05;;;6.85;;
26774;SDS011;14362;51.902;7.626;2022-11-27T05:36:04;11.07;;;6.53;;
26774;SDS011;14362;51.902;7.626;2022-11-27T05:40:06;14.88;;;6.78;;
26774;SDS011;14362;51.902;7.626;2022-11-27T05:44:11;14.13;;;7.00;;
26774;SDS011;14362;51.902;7.626;2022-11-27T05:52:15;10.02;;;6.28;;
26774;SDS011;14362;51.902;7.626;2022-11-27T05:56:16;11.77;;;6.82;;
26774;SDS011;14362;51.902;7.626;2022-11-27T06:00:20;13.90;;;6.47;;
26774;SDS011;14362;51.902;7.626;2022-11-27T06:04:21;15.77;;;6.68;;
26774;SDS011;14362;51.902;7.626;2022-11-27T06:08:23;12.50;;;6.97;;
26774;SDS011;14362;51.902;7.626;2022-11-27T06:12:24;12.52;;;6.50;;
26774;SDS011;14362;51.902;7.626;2022-11-27T06:16:27;10.38;;;6.72;;
26774;SDS011;14362;51.902;7.626;2022-11-27T06:20:29;8.52;;;6.05;;
26774;SDS011;14362;51.902;7.626;2022-11-27T06:24:30;14.82;;;6.63;;
26774;SDS011;14362;51.902;7.626;2022-11-27T06:28:31;8.73;;;5.85;;
26774;SDS011;14362;51.902;7.626;2022-11-27T06:32:34;12.32;;;7.13;;
26774;SDS011;14362;51.902;7.626;2022-11-27T06:36:36;11.52;;;6.82;;
26774;SDS011;14362;51.902;7.626;2022-11-27T06:40:39;10.80;;;6.63;;
26774;SDS011;14362;51.902;7.626;2022-11-27T06:44:41;14.77;;;7.32;;
26774;SDS011;14362;51.902;7.626;2022-11-27T06:48:44;11.77;;;6.80;;
26774;SDS011;14362;51.902;7.626;2022-11-27T06:52:47;11.77;;;6.20;;
26774;SDS011;14362;51.902;7.626;2022-11-27T06:56:49;11.40;;;6.53;;
26774;SDS011;14362;51.902;7.626;2022-11-27T07:00:55;9.85;;;5.60;;
26774;SDS011;14362;51.902;7.626;2022-11-27T07:04:58;8.32;;;5.70;;
26774;SDS011;14362;51.902;7.626;2022-11-27T07:09:00;10.38;;;5.78;;
26774;SDS011;14362;51.902;7.626;2022-11-27T07:13:01;11.55;;;6.72;;
26774;SDS011;14362;51.902;7.626;2022-11-27T07:17:03;10.52;;;6.03;;
26774;SDS011;14362;51.902;7.626;2022-11-27T07:21:05;12.02;;;6.47;;
26774;SDS011;14362;51.902;7.626;2022-11-27T07:25:07;11.45;;;6.22;;
26774;SDS011;14362;51.902;7.626;2022-11-27T07:29:09;9.50;;;5.80;;
26774;SDS011;14362;51.902;7.626;2022-11-27T07:33:10;10.00;;;5.88;;
26774;SDS011;14362;51.902;7.626;2022-11-27T07:37:13;13.18;;;5.88;;
26774;SDS011;14362;51.902;7.626;2022-11-27T07:41:14;8.32;;;5.35;;
26774;SDS011;14362;51.902;7.626;2022-11-27T07:45:16;10.65;;;5.72;;
26774;SDS011;14362;51.902;7.626;2022-11-27T07:49:18;9.10;;;5.82;;
26774;SDS011;14362;51.902;7.626;2022-11-27T07:53:21;10.57;;;5.80;;
26774;SDS011;14362;51.902;7.626;2022-11-27T07:57:22;10.02;;;5.45;;
26774;SDS011;14362;51.902;7.626;2022-11-27T08:01:23;8.70;;;5.60;;
26774;SDS011;14362;51.902;7.626;2022-11-27T08:05:25;13.27;;;6.00;;
26774;SDS011;14362;51.902;7.626;2022-11-27T08:09:29;13.73;;;6.07;;
26774;SDS011;14362;51.902;7.626;2022-11-27T08:13:30;9.82;;;5.60;;
26774;SDS011;14362;51.902;7.626;2022-11-27T08:17:32;10.82;;;5.65;;
26774;SDS011;14362;51.902;7.626;2022-11-27T08:21:33;11.23;;;6.28;;
26774;SDS011;14362;51.902;7.626;2022-11-27T08:25:37;10.70;;;5.82;;
26774;SDS011;14362;51.902;7.626;2022-11-27T08:29:38;12.30;;;6.05;;
26774;SDS011;14362;51.902;7.626;2022-11-27T08:33:40;9.30;;;5.97;;
26774;SDS011;14362;51.902;7.626;2022-11-27T08:37:41;10.55;;;6.45;;
26774;SDS011;14362;51.902;7.626;2022-11-27T08:41:44;9.40;;;6.07;;
26774;SDS011;14362;51.902;7.626;2022-11-27T08:45:46;9.38;;;6.43;;
26774;SDS011;14362;51.902;7.626;2022-11-27T08:49:47;10.73;;;6.88;;
26774;SDS011;14362;51.902;7.626;2022-11-27T08:53:49;11.15;;;6.45;;
26774;SDS011;14362;51.902;7.626;2022-11-27T08:57:51;11.73;;;6.18;;
26774;SDS011;14362;51.902;7.626;2022-11-27T09:01:53;12.20;;;6.85;;
26774;SDS011;14362;51.902;7.626;2022-11-27T09:05:54;10.50;;;6.20;;
26774;SDS011;14362;51.902;7.626;2022-11-27T09:09:56;9.20;;;6.28;;
26774;SDS011;14362;51.902;7.626;2022-11-27T09:13:59;10.80;;;6.38;;
26774;SDS011;14362;51.902;7.626;2022-11-27T09:18:01;12.82;;;7.13;;
26774;SDS011;14362;51.902;7.626;2022-11-27T09:22:02;9.20;;;6.80;;
26774;SDS011;14362;51.902;7.626;2022-11-27T09:26:05;9.18;;;7.10;;
26774;SDS011;14362;51.902;7.626;2022-11-27T09:30:10;9.85;;;7.07;;
26774;SDS011;14362;51.902;7.626;2022-11-27T09:34:12;10.15;;;7.18;;
26774;SDS011;14362;51.902;7.626;2022-11-27T09:38:14;10.45;;;7.18;;
26774;SDS011;14362;51.902;7.626;2022-11-27T09:42:19;11.63;;;7.65;;
26774;SDS011;14362;51.902;7.626;2022-11-27T09:46:37;14.45;;;7.57;;
26774;SDS011;14362;51.902;7.626;2022-11-27T09:50:42;11.02;;;7.65;;
26774;SDS011;14362;51.902;7.626;2022-11-27T09:54:50;10.25;;;7.38;;
26774;SDS011;14362;51.902;7.626;2022-11-27T09:58:56;12.20;;;8.85;;
26774;SDS011;14362;51.902;7.626;2022-11-27T10:03:00;14.75;;;9.15;;
26774;SDS011;14362;51.902;7.626;2022-11-27T10:07:07;14.38;;;9.65;;
26774;SDS011;14362;51.902;7.626;2022-11-27T10:11:19;11.95;;;8.25;;
26774;SDS011;14362;51.902;7.626;2022-11-27T10:15:31;15.85;;;8.73;;
26774;SDS011;14362;51.902;7.626;2022-11-27T10:19:41;12.25;;;8.20;;
26774;SDS011;14362;51.902;7.626;2022-11-27T10:23:50;13.27;;;8.85;;
26774;SDS011;14362;51.902;7.626;2022-11-27T10:28:02;12.50;;;8.55;;
26774;SDS011;14362;51.902;7.626;2022-11-27T10:32:12;11.27;;;9.23;;
26774;SDS011;14362;51.902;7.626;2022-11-27T10:36:20;14.27;;;9.73;;
26774;SDS011;14362;51.902;7.626;2022-11-27T10:40:28;12.13;;;8.65;;
26774;SDS011;14362;51.902;7.626;2022-11-27T10:44:37;13.07;;;8.75;;
26774;SDS011;14362;51.902;7.626;2022-11-27T10:48:41;12.18;;;8.50;;
26774;SDS011;14362;51.902;7.626;2022-11-27T10:52:48;12.98;;;10.40;;
26774;SDS011;14362;51.902;7.626;2022-11-27T10:57:00;14.48;;;9.35;;
26774;SDS011;14362;51.902;7.626;2022-11-27T11:01:15;11.23;;;8.60;;
26774;SDS011;14362;51.902;7.626;2022-11-27T11:05:18;12.63;;;7.93;;
26774;SDS011;14362;51.902;7.626;2022-11-27T11:09:24;12.13;;;8.75;;
26774;SDS011;14362;51.902;7.626;2022-11-27T11:13:28;10.70;;;8.02;;
26774;SDS011;14362;51.902;7.626;2022-11-27T11:17:31;10.00;;;7.75;;
26774;SDS011;14362;51.902;7.626;2022-11-27T11:21:36;12.88;;;8.50;;
26774;SDS011;14362;51.902;7.626;2022-11-27T11:25:46;12.27;;;7.60;;
26774;SDS011;14362;51.902;7.626;2022-11-27T11:29:50;14.02;;;8.85;;
26774;SDS011;14362;51.902;7.626;2022-11-27T11:33:55;9.93;;;8.25;;
26774;SDS011;14362;51.902;7.626;2022-11-27T11:37:59;10.98;;;8.50;;
26774;SDS011;14362;51.902;7.626;2022-11-27T11:42:09;11.38;;;8.43;;
26774;SDS011;14362;51.902;7.626;2022-11-27T11:46:15;9.75;;;8.10;;
26774;SDS011;14362;51.902;7.626;2022-11-27T11:50:21;13.18;;;8.77;;
26774;SDS011;14362;51.902;7.626;2022-11-27T11:54:31;14.60;;;8.30;;
26774;SDS011;14362;51.902;7.626;2022-11-27T11:58:51;12.15;;;8.32;;
26774;SDS011;14362;51.902;7.626;2022-11-27T12:03:07;11.60;;;8.10;;
26774;SDS011;14362;51.902;7.626;2022-11-27T12:07:26;13.98;;;8.70;;
26774;SDS011;14362;51.902;7.626;2022-11-27T12:11:45;13.38;;;9.07;;
26774;SDS011;14362;51.902;7.626;2022-11-27T12:15:54;14.52;;;8.70;;
26774;SDS011;14362;51.902;7.626;2022-11-27T12:20:12;11.55;;;8.48;;
26774;SDS011;14362;51.902;7.626;2022-11-27T12:24:20;10.95;;;8.23;;
26774;SDS011;14362;51.902;7.626;2022-11-27T12:28:47;8.77;;;7.78;;
26774;SDS011;14362;51.902;7.626;2022-11-27T12:33:16;12.95;;;8.13;;
26774;SDS011;14362;51.902;7.626;2022-11-27T12:37:30;10.23;;;6.97;;
26774;SDS011;14362;51.902;7.626;2022-11-27T12:41:44;10.38;;;8.00;;
26774;SDS011;14362;51.902;7.626;2022-11-27T12:45:54;10.77;;;7.43;;
26774;SDS011;14362;51.902;7.626;2022-11-27T12:50:02;11.90;;;8.40;;
26774;SDS011;14362;51.902;7.626;2022-11-27T12:54:08;11.00;;;7.82;;
26774;SDS011;14362;51.902;7.626;2022-11-27T12:58:15;9.30;;;8.15;;
26774;SDS011;14362;51.902;7.626;2022-11-27T13:02:25;11.85;;;7.88;;
26774;SDS011;14362;51.902;7.626;2022-11-27T13:06:35;11.27;;;9.32;;
26774;SDS011;14362;51.902;7.626;2022-11-27T13:10:49;10.68;;;8.02;;
26774;SDS011;14362;51.902;7.626;2022-11-27T13:14:55;10.57;;;8.02;;
26774;SDS011;14362;51.902;7.626;2022-11-27T13:19:02;7.88;;;7.07;;
26774;SDS011;14362;51.902;7.626;2022-11-27T13:23:12;8.75;;;6.20;;
26774;SDS011;14362;51.902;7.626;2022-11-27T13:27:14;8.98;;;5.30;;
26774;SDS011;14362;51.902;7.626;2022-11-27T13:31:18;6.78;;;4.90;;
26774;SDS011;14362;51.902;7.626;2022-11-27T13:35:24;8.23;;;5.47;;
26774;SDS011;14362;51.902;7.626;2022-11-27T13:39:31;6.78;;;4.90;;
26774;SDS011;14362;51.902;7.626;2022-11-27T13:43:38;6.15;;;4.15;;
26774;SDS011;14362;51.902;7.626;2022-11-27T13:47:42;5.95;;;3.55;;
26774;SDS011;14362;51.902;7.626;2022-11-27T13:51:44;4.20;;;3.22;;
26774;SDS011;14362;51.902;7.626;2022-11-27T13:55:52;6.05;;;4.13;;
26774;SDS011;14362;51.902;7.626;2022-11-27T13:59:56;8.02;;;5.13;;
26774;SDS011;14362;51.902;7.626;2022-11-27T14:04:05;10.02;;;5.75;;
26774;SDS011;14362;51.902;7.626;2022-11-27T14:08:18;8.80;;;5.47;;
26774;SDS011;14362;51.902;7.626;2022-11-27T14:12:23;7.00;;;4.50;;
26774;SDS011;14362;51.902;7.626;2022-11-27T14:16:27;4.85;;;3.60;;
26774;SDS011;14362;51.902;7.626;2022-11-27T14:20:31;4.53;;;3.33;;
26774;SDS011;14362;51.902;7.626;2022-11-27T14:24:37;4.65;;;3.13;;
26774;SDS011;14362;51.902;7.626;2022-11-27T14:28:44;6.53;;;5.18;;
26774;SDS011;14362;51.902;7.626;2022-11-27T14:32:48;6.40;;;4.05;;
26774;SDS011;14362;51.902;7.626;2022-11-27T14:36:50;7.43;;;3.88;;
26774;SDS011;14362;51.902;7.626;2022-11-27T14:40:53;5.55;;;3.85;;
26774;SDS011;14362;51.902;7.626;2022-11-27T14:45:03;4.60;;;3.40;;
26774;SDS011;14362;51.902;7.626;2022-11-27T14:49:14;4.93;;;3.53;;
26774;SDS011;14362;51.902;7.626;2022-11-27T14:53:18;5.63;;;3.67;;
26774;SDS011;14362;51.902;7.626;2022-11-27T14:57:22;5.40;;;3.78;;
26774;SDS011;14362;51.902;7.626;2022-11-27T15:01:27;8.25;;;4.13;;
26774;SDS011;14362;51.902;7.626;2022-11-27T15:05:30;5.95;;;4.30;;
26774;SDS011;14362;51.902;7.626;2022-11-27T15:09:32;6.53;;;4.53;;
26774;SDS011;14362;51.902;7.626;2022-11-27T15:13:36;6.07;;;4.57;;
26774;SDS011;14362;51.902;7.626;2022-11-27T15:17:39;5.68;;;5.13;;
26774;SDS011;14362;51.902;7.626;2022-11-27T15:21:44;7.28;;;6.57;;
26774;SDS011;14362;51.902;7.626;2022-11-27T15:25:50;7.78;;;6.70;;
26774;SDS011;14362;51.902;7.626;2022-11-27T15:30:12;8.35;;;7.55;;
26774;SDS011;14362;51.902;7.626;2022-11-27T15:34:21;8.75;;;6.38;;
26774;SDS011;14362;51.902;7.626;2022-11-27T15:38:24;5.80;;;5.20;;
26774;SDS011;14362;51.902;7.626;2022-11-27T15:42:25;7.22;;;5.03;;
26774;SDS011;14362;51.902;7.626;2022-11-27T15:46:27;8.82;;;5.78;;
26774;SDS011;14362;51.902;7.626;2022-11-27T15:50:34;18.02;;;9.43;;
26774;SDS011;14362;51.902;7.626;2022-11-27T15:54:35;23.50;;;13.63;;
26774;SDS011;14362;51.902;7.626;2022-11-27T15:58:37;22.30;;;13.07;;
26774;SDS011;14362;51.902;7.626;2022-11-27T16:02:38;18.52;;;11.80;;
26774;SDS011;14362;51.902;7.626;2022-11-27T16:06:41;10.93;;;7.82;;
26774;SDS011;14362;51.902;7.626;2022-11-27T16:10:43;9.75;;;7.15;;
26774;SDS011;14362;51.902;7.626;2022-11-27T16:14:44;9.10;;;7.03;;
26774;SDS011;14362;51.902;7.626;2022-11-27T16:18:45;9.60;;;6.90;;
26774;SDS011;14362;51.902;7.626;2022-11-27T16:22:48;15.05;;;8.73;;
26774;SDS011;14362;51.902;7.626;2022-11-27T16:26:50;9.85;;;5.72;;
26774;SDS011;14362;51.902;7.626;2022-11-27T16:30:51;8.60;;;5.55;;
26774;SDS011;14362;51.902;7.626;2022-11-27T16:34:53;8.02;;;4.68;;
26774;SDS011;14362;51.902;7.626;2022-11-27T16:38:55;6.15;;;3.58;;
26774;SDS011;14362;51.902;7.626;2022-11-27T16:42:57;5.18;;;3.97;;
26774;SDS011;14362;51.902;7.626;2022-11-27T16:46:58;8.18;;;5.30;;
26774;SDS011;14362;51.902;7.626;2022-11-27T16:51:00;7.43;;;4.75;;
26774;SDS011;14362;51.902;7.626;2022-11-27T16:55:04;4.90;;;4.07;;
26774;SDS011;14362;51.902;7.626;2022-11-27T16:59:06;7.78;;;6.72;;
26774;SDS011;14362;51.902;7.626;2022-11-27T17:03:09;15.02;;;11.93;;
26774;SDS011;14362;51.902;7.626;2022-11-27T17:07:10;200.70;;;87.85;;
26774;SDS011;14362;51.902;7.626;2022-11-27T17:11:15;130.07;;;61.47;;
26774;SDS011;14362;51.902;7.626;2022-11-27T17:15:19;79.20;;;44.05;;
26774;SDS011;14362;51.902;7.626;2022-11-27T17:19:20;17.38;;;15.60;;
26774;SDS011;14362;51.902;7.626;2022-11-27T17:23:22;13.45;;;9.68;;
26774;SDS011;14362;51.902;7.626;2022-11-27T17:27:25;34.78;;;22.05;;
26774;SDS011;14362;51.902;7.626;2022-11-27T17:31:27;16.80;;;11.65;;
26774;SDS011;14362;51.902;7.626;2022-11-27T17:35:31;12.27;;;7.55;;
26774;SDS011;14362;51.902;7.626;2022-11-27T17:39:33;19.80;;;12.35;;
26774;SDS011;14362;51.902;7.626;2022-11-27T17:43:36;15.43;;;11.30;;
26774;SDS011;14362;51.902;7.626;2022-11-27T17:47:38;10.02;;;7.30;;
26774;SDS011;14362;51.902;7.626;2022-11-27T17:51:40;7.65;;;5.95;;
26774;SDS011;14362;51.902;7.626;2022-11-27T17:55:41;14.63;;;7.88;;
26774;SDS011;14362;51.902;7.626;2022-11-27T17:59:44;19.65;;;14.02;;
26774;SDS011;14362;51.902;7.626;2022-11-27T18:03:46;18.98;;;12.35;;
26774;SDS011;14362;51.902;7.626;2022-11-27T18:07:47;27.15;;;15.48;;
26774;SDS011;14362;51.902;7.626;2022-11-27T18:11:48;20.10;;;10.82;;
26774;SDS011;14362;51.902;7.626;2022-11-27T18:15:51;20.20;;;11.38;;
26774;SDS011;14362;51.902;7.626;2022-11-27T18:19:53;12.73;;;8.45;;
26774;SDS011;14362;51.902;7.626;2022-11-27T18:37:34;29.38;;;17.65;;
26774;SDS011;14362;51.902;7.626;2022-11-27T18:41:37;19.85;;;16.55;;
26774;SDS011;14362;51.902;7.626;2022-11-27T18:45:38;13.05;;;10.98;;
26774;SDS011;14362;51.902;7.626;2022-11-27T18:49:40;14.85;;;9.85;;
26774;SDS011;14362;51.902;7.626;2022-11-27T18:53:43;11.70;;;6.93;;
26774;SDS011;14362;51.902;7.626;2022-11-27T18:57:45;9.38;;;6.57;;
26774;SDS011;14362;51.902;7.626;2022-11-27T19:01:46;9.90;;;7.22;;
26774;SDS011;14362;51.902;7.626;2022-11-27T19:05:48;10.05;;;7.15;;
26774;SDS011;14362;51.902;7.626;2022-11-27T19:09:51;7.25;;;6.22;;
26774;SDS011;14362;51.902;7.626;2022-11-27T19:13:53;7.72;;;6.68;;
26774;SDS011;14362;51.902;7.626;2022-11-27T19:17:56;7.03;;;6.00;;
26774;SDS011;14362;51.902;7.626;2022-11-27T19:21:57;5.72;;;4.35;;
26774;SDS011;14362;51.902;7.626;2022-11-27T19:26:03;8.20;;;5.80;;
26774;SDS011;14362;51.902;7.626;2022-11-27T19:30:06;6.57;;;4.93;;
26774;SDS011;14362;51.902;7.626;2022-11-27T19:34:09;6.07;;;4.40;;
26774;SDS011;14362;51.902;7.626;2022-11-27T19:38:12;5.32;;;4.45;;
26774;SDS011;14362;51.902;7.626;2022-11-27T19:42:15;6.85;;;5.22;;
26774;SDS011;14362;51.902;7.626;2022-11-27T19:46:17;7.20;;;4.63;;
26774;SDS011;14362;51.902;7.626;2022-11-27T19:50:20;8.13;;;5.18;;
26774;SDS011;14362;51.902;7.626;2022-11-27T19:54:21;7.78;;;5.78;;
26774;SDS011;14362;51.902;7.626;2022-11-27T19:58:24;8.07;;;5.57;;
26774;SDS011;14362;51.902;7.626;2022-11-27T20:02:25;5.53;;;4.45;;
26774;SDS011;14362;51.902;7.626;2022-11-27T20:06:29;8.05;;;4.43;;
26774;SDS011;14362;51.902;7.626;2022-11-27T20:10:30;5.13;;;4.35;;
26774;SDS011;14362;51.902;7.626;2022-11-27T20:14:33;5.07;;;4.53;;
26774;SDS011;14362;51.902;7.626;2022-11-27T20:18:35;6.15;;;4.55;;
26774;SDS011;14362;51.902;7.626;2022-11-27T20:22:36;6.18;;;4.90;;
26774;SDS011;14362;51.902;7.626;2022-11-27T20:26:38;6.25;;;4.65;;
26774;SDS011;14362;51.902;7.626;2022-11-27T20:30:41;5.63;;;4.32;;
26774;SDS011;14362;51.902;7.626;2022-11-27T20:34:43;6.13;;;4.90;;
26774;SDS011;14362;51.902;7.626;2022-11-27T20:38:45;6.13;;;5.13;;
26774;SDS011;14362;51.902;7.626;2022-11-27T20:42:46;8.52;;;4.90;;
26774;SDS011;14362;51.902;7.626;2022-11-27T20:46:49;6.90;;;5.32;;
26774;SDS011;14362;51.902;7.626;2022-11-27T20:50:51;8.68;;;6.53;;
26774;SDS011;14362;51.902;7.626;2022-11-27T20:54:52;7.57;;;5.40;;
26774;SDS011;14362;51.902;7.626;2022-11-27T20:58:56;8.38;;;6.57;;
26774;SDS011;14362;51.902;7.626;2022-11-27T21:03:01;9.60;;;7.07;;
26774;SDS011;14362;51.902;7.626;2022-11-27T21:07:02;8.73;;;6.43;;
26774;SDS011;14362;51.902;7.626;2022-11-27T21:11:07;7.10;;;6.03;;
26774;SDS011;14362;51.902;7.626;2022-11-27T21:15:10;8.10;;;5.95;;
26774;SDS011;14362;51.902;7.626;2022-11-27T21:19:15;8.15;;;6.13;;
26774;SDS011;14362;51.902;7.626;2022-11-27T21:23:19;5.88;;;5.25;;
26774;SDS011;14362;51.902;7.626;2022-11-27T21:27:20;5.72;;;4.70;;
26774;SDS011;14362;51.902;7.626;2022-11-27T21:31:22;6.90;;;4.85;;
26774;SDS011;14362;51.902;7.626;2022-11-27T21:35:26;10.25;;;5.38;;
26774;SDS011;14362;51.902;7.626;2022-11-27T21:39:28;6.28;;;4.93;;
26774;SDS011;14362;51.902;7.626;2022-11-27T21:43:29;6.75;;;4.90;;
26774;SDS011;14362;51.902;7.626;2022-11-27T21:47:33;6.25;;;4.82;;
26774;SDS011;14362;51.902;7.626;2022-11-27T21:51:36;5.63;;;4.45;;
26774;SDS011;14362;51.902;7.626;2022-11-27T21:55:39;7.18;;;5.05;;
26774;SDS011;14362;51.902;7.626;2022-11-27T21:59:40;5.10;;;4.60;;
26774;SDS011;14362;51.902;7.626;2022-11-27T22:03:42;5.28;;;4.32;;
26774;SDS011;14362;51.902;7.626;2022-11-27T22:07:47;6.32;;;4.35;;
26774;SDS011;14362;51.902;7.626;2022-11-27T22:11:48;5.78;;;4.43;;
26774;SDS011;14362;51.902;7.626;2022-11-27T22:15:52;5.72;;;4.63;;
26774;SDS011;14362;51.902;7.626;2022-11-27T22:19:53;5.18;;;4.30;;
26774;SDS011;14362;51.902;7.626;2022-11-27T22:23:57;4.50;;;4.03;;
26774;SDS011;14362;51.902;7.626;2022-11-27T22:28:00;5.75;;;4.22;;
26774;SDS011;14362;51.902;7.626;2022-11-27T22:32:01;5.00;;;4.40;;
26774;SDS011;14362;51.902;7.626;2022-11-27T22:36:09;6.68;;;4.57;;
26774;SDS011;14362;51.902;7.626;2022-11-27T22:40:13;5.20;;;4.10;;
26774;SDS011;14362;51.902;7.626;2022-11-27T22:44:16;6.75;;;5.20;;
26774;SDS011;14362;51.902;7.626;2022-11-27T22:48:19;6.05;;;4.30;;
26774;SDS011;14362;51.902;7.626;2022-11-27T22:52:21;6.00;;;4.30;;
26774;SDS011;14362;51.902;7.626;2022-11-27T22:56:24;6.45;;;4.30;;
26774;SDS011;14362;51.902;7.626;2022-11-27T23:00:26;6.13;;;4.32;;
26774;SDS011;14362;51.902;7.626;2022-11-27T23:04:27;5.55;;;4.30;;
26774;SDS011;14362;51.902;7.626;2022-11-27T23:08:29;5.40;;;4.43;;
26774;SDS011;14362;51.902;7.626;2022-11-27T23:12:33;5.07;;;4.57;;
26774;SDS011;14362;51.902;7.626;2022-11-27T23:16:35;5.70;;;4.47;;
26774;SDS011;14362;51.902;7.626;2022-11-27T23:20:38;5.75;;;4.72;;
26774;SDS011;14362;51.902;7.626;2022-11-27T23:24:41;4.30;;;3.90;;
26774;SDS011;14362;51.902;7.626;2022-11-27T23:28:44;6.68;;;4.78;;
26774;SDS011;14362;51.902;7.626;2022-11-27T23:32:46;5.57;;;4.40;;
26774;SDS011;14362;51.902;7.626;2022-11-27T23:36:47;5.25;;;4.50;;
26774;SDS011;14362;51.902;7.626;2022-11-27T23:40:49;8.95;;;4.90;;
26774;SDS011;14362;51.902;7.626;2022-11-27T23:44:52;8.80;;;4.80;;
26774;SDS011;14362;51.902;7.626;2022-11-27T23:48:54;5.57;;;4.68;;
26774;SDS011;14362;51.902;7.626;2022-11-27T23:52:56;8.15;;;4.82;;
26774;SDS011;14362;51.902;7.626;2022-11-27T23:56:58;5.88;;;5.20;;
